Impacts METAR Board
IDs:

KISP - Islip/Macarthur Arpt, NY, US

Updated at: 0700 UTC 22 Oct 2021
Potential Impact None Slight Moderate High
Time 21/19Z 21/20Z 21/21Z 21/22Z 21/23Z 22/00Z 22/01Z 22/02Z 22/03Z 22/04Z 22/05Z 22/06Z 22/07Z
Temp71 69 67 66 65 66 65 65 65 65 65 65 66
Dewpt55 59 60 62 61 60 60 60 61 62 63 63 62
Altim29.95 29.93 29.91 29.90 29.89 29.89 29.88 29.87 29.86 29.84 29.83 29.80 29.79
VIS10 10 10 10 10 10 10 10 10 10 10 10 10
CIG-- -- -- -- -- -- -- -- -- -- -- -- --
CoverSCTFEWFEWSCTSCTSCTSCTSCTSCTSCTCLRCLRCLR
FltCatVFRVFRVFRVFRVFRVFRVFRVFRVFRVFRVFRVFRVFR
WX--------------------------
WDir200190180200190190200190210210210200220
WSpd8 9 10 10 9 11 11 11 12 8 9 7 11
WGst-- -- -- -- -- -- -- -- -- -- -- -- --
Raw hourly METARs
KISP 211856Z 20008KT 10SM FEW120 SCT250 22/13 A2995 RMK AO2 SLP142 T02170128
KISP 211956Z 19009KT 10SM FEW075 FEW120 FEW250 21/15 A2993 RMK AO2 SLP135 T02060150
KISP 212056Z 18010KT 10SM FEW070 FEW120 FEW250 19/16 A2991 RMK AO2 SLP128 T01940156 58019
KISP 212156Z 20010KT 10SM FEW070 FEW120 SCT250 19/17 A2990 RMK AO2 SLP125 T01890167
KISP 212256Z 19009KT 10SM FEW070 FEW120 SCT250 18/16 A2989 RMK AO2 SLP121 T01830161
KISP 212356Z 19011KT 10SM FEW070 FEW120 SCT250 19/16 A2989 RMK AO2 SLP120 T01890156 10222 20183 56007
KISP 220056Z 20011KT 10SM FEW120 SCT250 18/16 A2988 RMK AO2 SLP118 T01830156
KISP 220156Z 19011KT 10SM SCT250 18/16 A2987 RMK AO2 SLP115 T01830156
KISP 220256Z 21012KT 10SM SCT250 18/16 A2986 RMK AO2 SLP109 T01830161 58011
KISP 220356Z 21008KT 10SM SCT250 18/17 A2984 RMK AO2 SLP104 LAST T01830167
KISP 220456Z AUTO 21009KT 10SM CLR 18/17 A2983 RMK AO2 SLP099 T01830172 402280106
KISP 220556Z AUTO 20007KT 10SM CLR 18/17 A2980 RMK AO2 SLP090 T01830172 10189 20183 58019
KISP 220656Z AUTO 22011KT 10SM CLR 19/17 A2979 RMK AO2 SLP086 T01890167



Page loaded:  07:26 UTC  |   12:26 AM Pacific  |   01:26 AM Mountain  |   02:26 AM Central  |   03:26 AM Eastern

 

ADVISORIES

FORECASTS

FORECASTS

OBSERVATIONS

USER TOOLS

ABOUT US